Time;durP1;ratioP1;P1;durP2;ratioP2;P2;SDS_P1;SDS_P2;PMS_P1;PMS_P2;Temp;Humidity;BMP_temperature;BMP_pressure;BME280_temperature;BME280_humidity;BME280_pressure;Samples;Min_cycle;Max_cycle;Signal;HPM_P1;HPM_P2
2022/11/10 00:00:41;;;;;;;41.72;19.13;;;4.70;99.90;;;;;;5098418;28;20085;-75
2022/11/10 00:03:09;;;;;;;42.05;18.88;;;4.70;99.90;;;;;;5098475;28;20024;-75
2022/11/10 00:05:37;;;;;;;34.80;17.00;;;4.70;99.90;;;;;;5098341;28;20391;-75
2022/11/10 00:08:05;;;;;;;40.00;19.02;;;4.70;99.90;;;;;;5098129;28;20027;-75
2022/11/10 00:10:31;;;;;;;40.70;18.75;;;4.80;99.90;;;;;;5116341;28;20032;-75
2022/11/10 00:13:03;;;;;;;42.78;17.70;;;4.70;99.90;;;;;;5116387;28;20467;-75
2022/11/10 00:18:12;;;;;;;43.40;17.90;;;4.70;99.90;;;;;;5117792;28;20501;-75
2022/11/10 00:20:38;;;;;;;42.97;20.15;;;4.70;99.90;;;;;;5116358;28;20023;-75
2022/11/10 00:23:04;;;;;;;41.10;18.75;;;4.70;99.90;;;;;;5117474;28;20023;-75
2022/11/10 00:25:31;;;;;;;48.15;19.38;;;4.70;99.90;;;;;;5098267;28;20058;-75
2022/11/10 00:28:01;;;;;;;50.35;19.35;;;4.70;99.90;;;;;;5098400;28;20035;-75
2022/11/10 00:30:27;;;;;;;43.83;19.02;;;4.70;99.90;;;;;;5114980;28;20406;-75
2022/11/10 00:32:52;;;;;;;46.58;19.58;;;4.80;99.90;;;;;;5097141;28;20030;-75
2022/11/10 00:35:18;;;;;;;45.05;20.17;;;4.80;99.90;;;;;;5097255;28;20459;-75
2022/11/10 00:37:43;;;;;;;42.30;19.23;;;4.80;99.90;;;;;;5099167;28;20114;-75
2022/11/10 00:40:09;;;;;;;46.08;20.67;;;4.90;99.90;;;;;;5096840;28;20024;-75
2022/11/10 00:42:35;;;;;;;40.53;19.02;;;4.90;99.90;;;;;;5096539;28;20035;-75
2022/11/10 00:45:02;;;;;;;50.40;20.90;;;5.00;99.90;;;;;;5096741;28;20035;-74
2022/11/10 00:47:27;;;;;;;45.67;20.52;;;5.00;99.90;;;;;;5114866;28;20063;-75
2022/11/10 00:49:53;;;;;;;43.28;19.52;;;5.00;99.90;;;;;;5115194;28;20043;-75
2022/11/10 00:52:18;;;;;;;44.63;20.05;;;5.00;99.90;;;;;;5114704;28;20528;-75
2022/11/10 00:54:44;;;;;;;47.28;19.23;;;5.10;99.90;;;;;;5096499;28;20031;-75
2022/11/10 00:57:10;;;;;;;44.28;19.63;;;5.10;99.90;;;;;;5115213;28;20027;-75
2022/11/10 00:59:35;;;;;;;44.17;18.58;;;5.20;99.90;;;;;;5098597;28;20024;-75
2022/11/10 01:02:01;;;;;;;43.58;18.90;;;5.20;99.90;;;;;;5099258;28;20107;-75
2022/11/10 01:04:27;;;;;;;43.90;19.75;;;5.30;99.90;;;;;;5117799;28;20046;-75
2022/11/10 01:06:52;;;;;;;43.97;19.50;;;5.30;99.90;;;;;;5099854;28;20444;-75
2022/11/10 01:09:18;;;;;;;43.28;18.73;;;5.30;99.90;;;;;;5098540;28;20028;-75
2022/11/10 01:11:44;;;;;;;44.35;18.88;;;5.40;99.90;;;;;;5116741;28;20062;-75
2022/11/10 01:14:09;;;;;;;41.53;19.25;;;5.40;99.90;;;;;;5116974;28;20066;-75
2022/11/10 01:16:35;;;;;;;37.58;18.42;;;5.50;99.90;;;;;;5098823;28;20370;-75
2022/11/10 01:19:02;;;;;;;42.17;17.58;;;5.40;99.90;;;;;;5098663;28;20382;-75
2022/11/10 01:21:29;;;;;;;40.40;18.33;;;5.40;99.90;;;;;;5098652;28;20065;-75
2022/11/10 01:23:54;;;;;;;44.67;18.60;;;5.40;99.90;;;;;;5116006;28;20032;-75
2022/11/10 01:26:21;;;;;;;39.17;18.67;;;5.40;99.90;;;;;;5116323;28;20497;-75
2022/11/10 01:28:47;;;;;;;35.35;17.40;;;5.50;99.90;;;;;;5098037;28;20165;-75
2022/11/10 01:31:16;;;;;;;34.70;17.15;;;5.50;99.90;;;;;;5116432;28;20078;-75
2022/11/10 01:33:41;;;;;;;34.70;17.98;;;5.50;99.90;;;;;;5098247;28;20368;-75
2022/11/10 01:36:09;;;;;;;40.13;18.60;;;5.50;99.90;;;;;;5116101;28;20059;-75
2022/11/10 01:38:36;;;;;;;37.00;18.17;;;5.60;99.90;;;;;;5116135;28;20494;-76
2022/11/10 01:41:04;;;;;;;40.90;18.00;;;5.50;99.90;;;;;;5115606;28;20024;-75
2022/11/10 01:43:31;;;;;;;38.75;17.92;;;5.50;99.90;;;;;;5119394;28;20019;-75
2022/11/10 01:46:12;;;;;;;40.72;16.80;;;5.50;99.90;;;;;;5119356;28;20102;-75
2022/11/10 01:48:59;;;;;;;35.38;16.83;;;5.40;99.90;;;;;;5101009;28;20027;-75
2022/11/10 01:51:43;;;;;;;33.95;17.20;;;5.50;99.90;;;;;;5101196;28;20024;-75
2022/11/10 01:54:12;;;;;;;35.00;17.73;;;5.50;99.90;;;;;;5119722;28;20102;-75
2022/11/10 01:56:43;;;;;;;36.53;17.70;;;5.40;99.90;;;;;;5119719;28;20027;-75
2022/11/10 01:59:13;;;;;;;37.22;16.48;;;5.40;99.90;;;;;;5101575;28;20030;-75
2022/11/10 02:01:39;;;;;;;35.67;16.65;;;5.40;99.90;;;;;;5119203;28;20019;-75
2022/11/10 02:04:08;;;;;;;36.38;17.20;;;5.40;99.90;;;;;;5101038;28;20032;-75
2022/11/10 02:06:37;;;;;;;36.95;18.38;;;5.40;99.90;;;;;;5101671;28;20218;-75
2022/11/10 02:09:03;;;;;;;;;;;5.30;99.90;;;;;;5119960;28;20026;-75
2022/11/10 02:11:30;;;;;;;37.92;16.13;;;5.40;99.90;;;;;;5100788;28;19904;-75
2022/11/10 02:13:56;;;;;;;40.13;18.40;;;5.30;99.90;;;;;;5101183;28;20080;-75
2022/11/10 02:16:22;;;;;;;35.70;17.70;;;5.40;99.90;;;;;;5119054;28;20520;-75
2022/11/10 02:18:48;;;;;;;36.60;16.42;;;5.40;99.90;;;;;;5119046;28;20106;-75
2022/11/10 02:21:18;;;;;;;38.17;17.77;;;5.40;99.90;;;;;;5119424;28;20371;-75
2022/11/10 02:23:52;;;;;;;36.83;18.02;;;5.40;99.90;;;;;;5118500;28;20098;-75
2022/11/10 02:26:29;;;;;;;38.20;17.50;;;5.50;99.90;;;;;;5118073;28;20492;-75
2022/11/10 02:28:54;;;;;;;34.30;17.23;;;5.50;99.90;;;;;;5118295;28;20038;-75
2022/11/10 02:31:20;;;;;;;36.97;17.67;;;5.50;99.90;;;;;;5117994;28;20024;-75
2022/11/10 02:33:45;;;;;;;36.25;17.60;;;5.50;99.90;;;;;;5117979;28;20474;-75
2022/11/10 02:36:11;;;;;;;35.65;17.60;;;5.50;99.90;;;;;;5118189;28;20031;-75
2022/11/10 02:38:37;;;;;;;35.80;17.38;;;5.60;99.90;;;;;;5099664;28;20020;-75
2022/11/10 02:41:03;;;;;;;34.65;17.95;;;5.60;99.90;;;;;;5099520;28;20024;-75
2022/11/10 02:43:29;;;;;;;33.30;17.23;;;5.60;99.90;;;;;;5099874;28;20051;-75
2022/11/10 02:45:54;;;;;;;33.67;16.02;;;5.70;99.90;;;;;;5099525;28;20059;-75
2022/11/10 02:48:20;;;;;;;32.78;16.88;;;5.80;99.90;;;;;;5117191;28;20031;-75
2022/11/10 02:50:46;;;;;;;32.30;17.98;;;5.80;99.90;;;;;;5116687;28;20028;-75
2022/11/10 02:53:11;;;;;;;32.38;15.82;;;5.80;99.90;;;;;;5117429;28;20051;-75
2022/11/10 02:55:37;;;;;;;27.92;14.48;;;5.90;99.90;;;;;;5099033;28;20035;-75
2022/11/10 02:58:03;;;;;;;26.38;15.05;;;5.90;99.90;;;;;;5117117;28;20531;-75
2022/11/10 03:00:29;;;;;;;25.50;14.30;;;5.90;99.90;;;;;;5116752;28;20023;-75
2022/11/10 03:03:04;;;;;;;26.10;14.20;;;5.90;99.90;;;;;;5098511;28;20471;-75
2022/11/10 03:05:30;;;;;;;27.77;14.57;;;5.90;99.90;;;;;;5099005;28;20028;-75
2022/11/10 03:07:59;;;;;;;27.52;13.73;;;5.90;99.90;;;;;;5116738;28;20030;-75
2022/11/10 03:10:25;;;;;;;24.13;13.27;;;5.90;99.90;;;;;;5116994;28;20081;-75
2022/11/10 03:12:58;;;;;;;23.40;14.23;;;5.90;99.90;;;;;;5116755;28;20031;-75
2022/11/10 03:15:24;;;;;;;25.50;14.75;;;6.00;99.90;;;;;;5117563;28;20073;-75
2022/11/10 03:17:50;;;;;;;24.00;13.38;;;6.00;99.90;;;;;;5117842;28;20020;-75
2022/11/10 03:20:17;;;;;;;27.20;14.65;;;6.00;99.90;;;;;;5099269;28;20027;-75
2022/11/10 03:22:43;;;;;;;25.30;13.55;;;6.00;99.90;;;;;;5099512;28;20078;-75
2022/11/10 03:25:10;;;;;;;21.85;13.20;;;6.10;99.90;;;;;;5117962;28;20471;-75
2022/11/10 03:27:36;;;;;;;23.27;13.85;;;6.10;99.90;;;;;;5099395;28;20020;-75
2022/11/10 03:30:02;;;;;;;21.45;12.82;;;6.10;99.90;;;;;;5117244;28;20098;-75
2022/11/10 03:32:28;;;;;;;23.80;13.52;;;6.10;99.90;;;;;;5098149;28;20080;-75
2022/11/10 03:34:53;;;;;;;23.13;13.40;;;6.10;99.90;;;;;;5116275;28;20016;-75
2022/11/10 03:37:19;;;;;;;23.33;12.25;;;6.10;99.90;;;;;;5098558;28;20073;-75
2022/11/10 03:39:45;;;;;;;20.23;12.45;;;6.20;99.90;;;;;;5117326;28;20376;-75
2022/11/10 03:42:10;;;;;;;24.83;12.38;;;6.20;99.90;;;;;;5117548;28;20031;-75
2022/11/10 03:44:36;;;;;;;19.50;11.88;;;6.20;99.90;;;;;;5117707;28;20035;-75
2022/11/10 03:47:02;;;;;;;19.13;11.20;;;6.20;99.90;;;;;;5098969;28;20423;-75
2022/11/10 03:49:29;;;;;;;17.88;11.52;;;6.30;99.90;;;;;;5117307;28;20027;-75
2022/11/10 03:51:54;;;;;;;22.48;12.85;;;6.30;99.90;;;;;;5099078;28;20522;-75
2022/11/10 03:54:20;;;;;;;19.90;12.18;;;6.30;99.90;;;;;;5116937;28;20055;-75
2022/11/10 03:56:46;;;;;;;20.92;11.80;;;6.40;99.90;;;;;;5117208;28;20051;-75
2022/11/10 03:59:11;;;;;;;18.45;11.35;;;6.40;99.90;;;;;;5098680;28;20422;-75
2022/11/10 04:01:37;;;;;;;20.13;11.65;;;6.40;99.90;;;;;;5116908;28;20024;-75
2022/11/10 04:04:03;;;;;;;21.33;10.93;;;6.40;99.90;;;;;;5116014;28;20023;-75
2022/11/10 04:09:12;;;;;;;19.00;11.18;;;6.50;99.90;;;;;;5116161;28;20525;-75
2022/11/10 04:17:07;;;;;;;19.27;10.07;;;6.50;99.90;;;;;;5116522;28;20057;-75
2022/11/10 04:19:32;;;;;;;16.38;10.20;;;6.60;99.90;;;;;;5118725;28;20115;-75
2022/11/10 04:21:58;;;;;;;16.65;9.52;;;6.60;99.90;;;;;;5120159;28;20416;-75
2022/11/10 04:24:24;;;;;;;15.00;8.85;;;6.60;99.90;;;;;;5118573;28;20375;-75
2022/11/10 04:26:49;;;;;;;17.35;10.07;;;6.60;99.90;;;;;;5118944;28;20383;-75
2022/11/10 04:29:17;;;;;;;14.90;9.23;;;6.60;99.90;;;;;;5118236;28;20032;-76
2022/11/10 04:31:43;;;;;;;15.00;8.97;;;6.70;99.90;;;;;;5099993;28;20034;-75
2022/11/10 04:34:12;;;;;;;17.33;10.43;;;6.70;99.90;;;;;;5100884;28;20363;-75
2022/11/10 04:36:40;;;;;;;17.42;11.30;;;6.70;99.90;;;;;;5100512;28;20027;-75
2022/11/10 04:39:06;;;;;;;16.98;9.77;;;6.70;99.90;;;;;;5099847;28;20035;-75
2022/11/10 04:41:32;;;;;;;17.10;10.60;;;6.70;99.90;;;;;;5118382;28;20027;-75
2022/11/10 04:43:59;;;;;;;16.67;10.30;;;6.70;99.90;;;;;;5118700;28;20038;-75
2022/11/10 04:46:25;;;;;;;21.20;11.93;;;6.70;99.90;;;;;;5118247;28;20059;-75
2022/11/10 04:48:52;;;;;;;24.00;10.65;;;6.70;99.90;;;;;;5118898;28;20054;-75
2022/11/10 04:51:19;;;;;;;19.42;10.90;;;6.70;99.90;;;;;;5118653;28;20039;-77
2022/11/10 04:53:45;;;;;;;16.15;10.73;;;6.70;99.90;;;;;;5118546;28;20038;-75
2022/11/10 04:56:15;;;;;;;14.95;9.93;;;6.70;99.90;;;;;;5118347;28;20031;-75
2022/11/10 04:58:41;;;;;;;16.20;9.40;;;6.70;99.90;;;;;;5118392;28;20085;-75
2022/11/10 05:01:11;;;;;;;14.32;9.23;;;6.70;99.90;;;;;;5101106;28;20422;-75
2022/11/10 05:03:36;;;;;;;21.35;9.52;;;6.70;99.90;;;;;;5100393;28;20034;-75
2022/11/10 05:06:02;;;;;;;15.00;9.57;;;6.70;99.90;;;;;;5100210;28;20114;-75
2022/11/10 05:08:28;;;;;;;17.23;9.35;;;6.70;99.90;;;;;;5117911;28;20030;-75
2022/11/10 05:10:53;;;;;;;18.52;10.25;;;6.70;99.90;;;;;;5099502;28;20026;-75
2022/11/10 05:13:19;;;;;;;22.00;10.85;;;6.70;99.90;;;;;;5098946;28;20091;-75
2022/11/10 05:15:45;;;;;;;19.10;10.13;;;6.80;99.90;;;;;;5099068;28;20055;-74
2022/11/10 05:18:10;;;;;;;16.35;9.68;;;6.80;99.90;;;;;;5120937;28;20023;-75
2022/11/10 05:20:36;;;;;;;18.98;10.27;;;6.80;99.90;;;;;;5102739;28;20035;-74
2022/11/10 05:25:46;;;;;;;18.13;10.18;;;6.90;99.90;;;;;;5119749;28;20058;-73
2022/11/10 05:28:12;;;;;;;15.55;10.05;;;6.90;99.90;;;;;;5119970;28;20024;-74
2022/11/10 05:30:39;;;;;;;16.45;9.77;;;7.00;99.90;;;;;;5101288;28;20479;-75
2022/11/10 05:33:05;;;;;;;17.30;9.55;;;7.10;99.90;;;;;;5102870;28;20448;-75
2022/11/10 05:38:16;;;;;;;14.00;8.95;;;7.50;99.90;;;;;;5121773;28;20043;-75
2022/11/10 05:40:42;;;;;;;13.95;8.52;;;7.80;99.90;;;;;;5103940;28;20368;-76
2022/11/10 05:43:09;;;;;;;14.15;8.65;;;8.00;99.90;;;;;;5104016;28;20030;-76
2022/11/10 05:45:34;;;;;;;13.40;8.48;;;8.20;99.90;;;;;;5121981;28;20459;-76
2022/11/10 05:48:00;;;;;;;10.90;7.50;;;8.40;99.90;;;;;;5102604;28;20088;-76
2022/11/10 05:50:26;;;;;;;11.27;6.90;;;8.50;99.90;;;;;;5120259;28;20031;-75
2022/11/10 05:52:53;;;;;;;10.43;7.95;;;8.60;99.90;;;;;;5120395;28;20367;-74
2022/11/10 05:55:22;;;;;;;10.93;7.53;;;8.80;99.90;;;;;;5119702;28;20076;-74
2022/11/10 05:57:49;;;;;;;10.25;7.07;;;8.80;99.90;;;;;;5119567;28;20024;-74
2022/11/10 06:00:39;;;;;;;9.95;6.72;;;8.90;99.90;;;;;;5101765;28;20467;-75
2022/11/10 06:03:11;;;;;;;11.65;6.93;;;8.90;99.90;;;;;;5119705;28;20084;-74
2022/11/10 06:05:36;;;;;;;10.77;6.95;;;8.90;99.90;;;;;;5101586;28;20035;-74
2022/11/10 06:08:04;;;;;;;9.77;7.07;;;9.00;99.90;;;;;;5101832;28;20032;-75
2022/11/10 06:10:30;;;;;;;9.60;6.50;;;9.00;99.90;;;;;;5100296;28;20028;-75
2022/11/10 06:12:57;;;;;;;10.23;6.75;;;9.10;99.90;;;;;;5119133;28;20114;-74
2022/11/10 06:15:23;;;;;;;7.32;5.50;;;9.20;99.90;;;;;;5102347;28;20035;-74
2022/11/10 06:17:49;;;;;;;7.60;6.32;;;9.20;99.90;;;;;;5120353;28;20061;-75
2022/11/10 06:20:16;;;;;;;8.82;6.90;;;9.20;99.90;;;;;;5102676;28;20032;-75
2022/11/10 06:22:42;;;;;;;9.52;6.80;;;9.20;99.90;;;;;;5119659;28;20451;-74
2022/11/10 06:25:09;;;;;;;8.68;5.90;;;9.20;99.90;;;;;;5100660;28;20447;-75
2022/11/10 06:27:34;;;;;;;9.80;6.43;;;9.20;99.90;;;;;;5101058;28;20125;-75
2022/11/10 06:30:00;;;;;;;10.18;6.38;;;9.20;99.90;;;;;;5118589;28;20059;-75
2022/11/10 06:32:26;;;;;;;11.00;6.35;;;9.20;99.90;;;;;;5120390;28;20031;-75
2022/11/10 06:34:51;;;;;;;9.30;5.90;;;9.30;99.90;;;;;;5101228;28;20375;-75
2022/11/10 06:37:17;;;;;;;10.25;6.38;;;9.30;99.90;;;;;;5100160;28;20020;-75
2022/11/10 06:39:43;;;;;;;9.40;6.63;;;9.30;99.90;;;;;;5100460;28;20028;-74
2022/11/10 06:42:08;;;;;;;9.23;6.63;;;9.30;99.90;;;;;;5100213;28;20049;-74
2022/11/10 06:44:34;;;;;;;8.23;6.53;;;9.40;99.90;;;;;;5117861;28;20471;-75
2022/11/10 06:46:59;;;;;;;7.60;6.10;;;9.40;99.90;;;;;;5100675;28;20075;-75
2022/11/10 06:49:25;;;;;;;10.95;6.80;;;9.40;99.90;;;;;;5100068;28;20057;-74
2022/11/10 06:51:51;;;;;;;8.65;6.80;;;9.50;99.90;;;;;;5099938;28;20027;-75
2022/11/10 06:54:17;;;;;;;9.32;7.18;;;9.50;99.90;;;;;;5099611;28;20028;-75
2022/11/10 06:56:42;;;;;;;8.07;6.75;;;9.50;99.90;;;;;;5118722;28;20027;-75
2022/11/10 06:59:08;;;;;;;8.18;5.93;;;9.60;99.90;;;;;;5099995;28;20024;-75
2022/11/10 07:01:33;;;;;;;8.23;6.35;;;9.60;99.90;;;;;;5117787;28;20110;-75
2022/11/10 07:03:59;;;;;;;9.80;6.97;;;9.60;99.90;;;;;;5099842;28;20513;-74
2022/11/10 07:06:25;;;;;;;8.98;6.95;;;9.70;99.90;;;;;;5117861;28;20040;-75
2022/11/10 07:08:50;;;;;;;9.52;7.30;;;9.70;99.90;;;;;;5118022;28;20023;-75
2022/11/10 07:11:16;;;;;;;8.65;7.00;;;9.70;99.90;;;;;;5118032;28;20098;-75
2022/11/10 07:13:42;;;;;;;8.32;6.43;;;9.70;99.90;;;;;;5099041;28;20023;-75
2022/11/10 07:16:08;;;;;;;9.40;6.80;;;9.80;99.90;;;;;;5099390;28;20032;-75
2022/11/10 07:18:35;;;;;;;8.80;6.45;;;9.80;99.90;;;;;;5099846;28;20511;-75
2022/11/10 07:21:05;;;;;;;11.05;7.20;;;9.80;99.90;;;;;;5099283;28;20024;-75
2022/11/10 07:23:32;;;;;;;7.65;6.20;;;9.80;99.90;;;;;;5099619;28;20034;-75
2022/11/10 07:25:59;;;;;;;8.50;6.38;;;9.90;99.90;;;;;;5118482;28;20100;-75
2022/11/10 07:28:24;;;;;;;6.90;6.05;;;9.90;99.90;;;;;;5118344;28;20023;-76
2022/11/10 07:30:50;;;;;;;7.57;6.50;;;9.90;99.90;;;;;;5100493;28;20026;-75
2022/11/10 07:33:16;;;;;;;9.55;7.00;;;9.90;99.90;;;;;;5118752;28;20051;-74
2022/11/10 07:35:42;;;;;;;9.35;6.20;;;9.90;99.90;;;;;;5117963;28;20059;-76
2022/11/10 07:38:10;;;;;;;8.57;6.47;;;10.00;99.90;;;;;;5117747;28;20020;-75
2022/11/10 07:40:36;;;;;;;9.87;6.13;;;10.00;99.90;;;;;;5116555;28;20035;-75
2022/11/10 07:43:03;;;;;;;7.15;5.90;;;10.00;99.90;;;;;;5098680;28;20806;-75
2022/11/10 07:45:29;;;;;;;8.25;6.57;;;10.10;99.90;;;;;;5098615;28;20035;-75
2022/11/10 07:48:02;;;;;;;8.75;7.00;;;10.10;99.90;;;;;;5098704;28;20096;-75
2022/11/10 07:50:28;;;;;;;8.57;6.55;;;10.20;99.90;;;;;;5098895;28;20028;-75
2022/11/10 07:53:06;;;;;;;7.82;6.07;;;10.30;99.90;;;;;;5098637;28;20076;-75
2022/11/10 07:55:32;;;;;;;7.32;5.50;;;10.30;99.90;;;;;;5116070;28;20031;-75
2022/11/10 07:57:59;;;;;;;7.60;6.18;;;10.40;99.90;;;;;;5115585;28;20425;-75
2022/11/10 08:00:25;;;;;;;6.25;5.43;;;10.50;99.90;;;;;;5116040;28;20066;-75
2022/11/10 08:02:51;;;;;;;6.45;5.70;;;10.50;99.90;;;;;;5098303;28;20023;-75
2022/11/10 08:05:17;;;;;;;6.65;5.55;;;10.60;99.90;;;;;;5097248;28;20040;-75
2022/11/10 08:07:43;;;;;;;6.30;5.70;;;10.60;99.90;;;;;;5115706;28;20344;-75
2022/11/10 08:10:08;;;;;;;6.65;5.82;;;10.70;99.90;;;;;;5098375;28;20031;-76
2022/11/10 08:12:34;;;;;;;6.95;6.00;;;10.70;99.90;;;;;;5116980;28;20428;-75
2022/11/10 08:15:00;;;;;;;9.63;5.47;;;10.70;99.90;;;;;;5116596;28;20042;-75
2022/11/10 08:17:26;;;;;;;5.70;5.18;;;10.80;99.90;;;;;;5116639;28;20035;-75
2022/11/10 08:19:51;;;;;;;7.47;5.20;;;10.90;99.90;;;;;;5097217;28;20027;-75
2022/11/10 08:22:17;;;;;;;6.30;5.38;;;10.90;99.90;;;;;;5115279;28;20019;-76
2022/11/10 08:24:43;;;;;;;5.32;4.78;;;10.90;99.90;;;;;;5115966;28;20024;-76
2022/11/10 08:27:10;;;;;;;7.38;5.22;;;11.00;99.90;;;;;;5097081;28;20532;-75
2022/11/10 08:29:35;;;;;;;5.57;4.82;;;11.00;99.90;;;;;;5096976;28;20035;-76
2022/11/10 08:32:01;;;;;;;6.00;4.78;;;11.10;99.90;;;;;;5116407;28;20049;-77
2022/11/10 08:34:27;;;;;;;5.88;4.88;;;11.10;99.90;;;;;;5097349;28;20502;-76
2022/11/10 08:36:52;;;;;;;7.55;4.97;;;11.20;99.90;;;;;;5116586;28;20070;-76
2022/11/10 08:39:18;;;;;;;5.90;5.28;;;11.20;99.90;;;;;;5097813;28;20110;-76
2022/11/10 08:41:44;;;;;;;5.22;4.72;;;11.30;99.90;;;;;;5116553;28;20024;-75
2022/11/10 08:44:11;;;;;;;5.63;4.70;;;11.30;99.90;;;;;;5097742;28;20077;-76
2022/11/10 08:46:37;;;;;;;5.22;4.35;;;11.40;99.90;;;;;;5096492;28;20071;-76
2022/11/10 08:49:02;;;;;;;5.13;4.53;;;11.40;99.90;;;;;;5114413;28;20034;-76
2022/11/10 08:51:28;;;;;;;4.80;4.30;;;11.50;99.90;;;;;;5114883;28;20081;-76
2022/11/10 08:53:54;;;;;;;5.72;4.63;;;11.50;99.90;;;;;;5114615;28;20024;-75
2022/11/10 08:56:19;;;;;;;7.20;4.57;;;11.50;99.90;;;;;;5114551;28;20490;-76
2022/11/10 08:58:45;;;;;;;9.20;4.55;;;11.50;99.90;;;;;;5096149;28;20092;-76
2022/11/10 09:01:11;;;;;;;4.95;4.43;;;11.60;99.90;;;;;;5096221;28;20114;-76
2022/11/10 09:03:37;;;;;;;5.13;4.65;;;11.50;99.90;;;;;;5114764;28;20116;-76
2022/11/10 09:06:03;;;;;;;4.95;4.45;;;11.50;99.90;;;;;;5114443;28;20475;-76
2022/11/10 09:08:32;;;;;;;5.18;4.57;;;11.60;99.90;;;;;;5114162;28;20467;-76
2022/11/10 09:11:02;;;;;;;4.55;4.13;;;11.60;99.90;;;;;;5096106;28;20409;-76
2022/11/10 09:13:28;;;;;;;9.07;6.20;;;11.60;99.90;;;;;;5114924;28;20032;-76
2022/11/10 09:15:54;;;;;;;5.90;4.32;;;11.60;99.90;;;;;;5114381;28;20024;-76
2022/11/10 09:18:19;;;;;;;4.82;4.15;;;11.70;99.90;;;;;;5114299;28;20073;-75
2022/11/10 09:20:45;;;;;;;5.05;4.28;;;11.80;99.90;;;;;;5114291;28;20023;-76
2022/11/10 09:23:13;;;;;;;5.25;4.30;;;11.80;99.90;;;;;;5114197;28;20020;-76
2022/11/10 09:25:39;;;;;;;5.28;4.50;;;11.90;99.90;;;;;;5089349;28;20084;-76
2022/11/10 09:28:10;;;;;;;3.95;3.55;;;12.00;99.90;;;;;;5094152;28;20032;-75
2022/11/10 09:30:35;;;;;;;6.32;3.90;;;12.00;99.90;;;;;;5076333;28;20529;-76
2022/11/10 09:33:01;;;;;;;4.53;3.83;;;12.00;99.90;;;;;;5094477;28;20028;-75
2022/11/10 09:35:27;;;;;;;3.92;3.53;;;12.10;99.90;;;;;;5075776;28;20119;-75
2022/11/10 09:37:52;;;;;;;4.18;3.40;;;12.10;99.90;;;;;;5075853;28;20035;-76
2022/11/10 09:40:27;;;;;;;4.47;3.22;;;12.10;99.90;;;;;;5096366;28;20067;-76
2022/11/10 09:42:55;;;;;;;7.65;3.55;;;12.10;99.90;;;;;;5096959;28;20103;-75
2022/11/10 09:45:21;;;;;;;4.00;3.70;;;12.10;99.90;;;;;;5077626;28;20071;-76
2022/11/10 09:48:06;;;;;;;5.25;3.88;;;12.20;99.90;;;;;;5078137;28;20093;-75
2022/11/10 09:50:47;;;;;;;5.03;3.35;;;12.20;99.90;;;;;;5078551;28;20468;-75
2022/11/10 09:53:18;;;;;;;7.57;3.95;;;12.30;99.90;;;;;;5095217;28;20028;-76
2022/11/10 09:55:57;;;;;;;4.35;3.92;;;12.30;99.90;;;;;;5077390;28;20085;-76
2022/11/10 09:58:28;;;;;;;4.30;3.83;;;12.20;99.90;;;;;;5077315;28;20400;-75
2022/11/10 10:01:31;;;;;;;4.10;3.55;;;12.20;99.90;;;;;;5076934;28;20028;-77
2022/11/10 10:04:18;;;;;;;4.30;3.90;;;12.20;99.90;;;;;;5078357;28;20033;-76
2022/11/10 10:06:57;;;;;;;6.05;3.50;;;12.20;99.90;;;;;;5097593;28;20036;-76
2022/11/10 10:09:50;;;;;;;5.05;4.28;;;12.10;99.90;;;;;;5080145;28;20025;-76
2022/11/10 10:12:48;;;;;;;5.10;3.83;;;12.10;99.90;;;;;;5079690;28;20119;-75
2022/11/10 10:15:56;;;;;;;7.38;4.15;;;12.10;99.90;;;;;;5097459;28;20024;-75
2022/11/10 10:18:34;;;;;;;5.38;4.13;;;12.10;99.90;;;;;;5097238;28;20401;-75
2022/11/10 10:21:36;;;;;;;7.93;4.05;;;12.00;99.90;;;;;;5079201;28;20500;-75
2022/11/10 10:24:03;;;;;;;4.93;3.60;;;12.00;99.90;;;;;;5079649;28;20024;-75
2022/11/10 10:26:32;;;;;;;6.20;3.75;;;12.00;99.90;;;;;;5097209;28;20105;-75
2022/11/10 10:29:21;;;;;;;4.32;3.83;;;12.00;99.90;;;;;;5078896;28;20035;-75
2022/11/10 10:31:52;;;;;;;4.70;4.03;;;11.90;99.90;;;;;;5096887;28;20028;-75
2022/11/10 10:34:24;;;;;;;4.65;3.58;;;11.90;99.90;;;;;;5097144;28;20035;-75
2022/11/10 10:36:50;;;;;;;3.83;3.53;;;11.90;99.90;;;;;;5097041;28;20027;-75
2022/11/10 10:39:15;;;;;;;4.43;4.03;;;11.90;99.90;;;;;;5078536;28;20463;-75
2022/11/10 10:41:44;;;;;;;5.78;4.38;;;11.80;99.90;;;;;;5096743;28;20523;-75
2022/11/10 10:44:15;;;;;;;6.38;4.18;;;11.80;99.90;;;;;;5096709;28;20471;-75
2022/11/10 10:46:54;;;;;;;6.32;3.90;;;11.80;99.90;;;;;;5096677;28;20043;-75
2022/11/10 10:49:23;;;;;;;6.50;4.15;;;11.80;99.90;;;;;;5096961;28;20024;-75
2022/11/10 10:51:50;;;;;;;4.88;4.07;;;11.80;99.90;;;;;;5096538;28;20026;-75
2022/11/10 10:54:25;;;;;;;6.40;4.47;;;11.80;99.90;;;;;;5096458;28;20074;-75
2022/11/10 10:57:09;;;;;;;7.32;4.30;;;11.80;99.90;;;;;;5078421;28;20024;-75
2022/11/10 10:59:35;;;;;;;4.95;3.75;;;11.80;99.90;;;;;;5096751;28;20081;-75
2022/11/10 11:02:00;;;;;;;4.40;4.00;;;11.80;99.90;;;;;;5078185;28;20028;-75
2022/11/10 11:04:35;;;;;;;4.75;4.25;;;11.80;99.90;;;;;;5096216;28;20460;-75
2022/11/10 11:07:04;;;;;;;5.25;4.47;;;11.80;99.90;;;;;;5078630;28;20478;-76
2022/11/10 11:09:41;;;;;;;5.32;3.97;;;11.80;99.90;;;;;;5078549;28;20529;-75
2022/11/10 11:12:12;;;;;;;7.03;4.22;;;11.80;99.90;;;;;;5097136;28;20038;-76
2022/11/10 11:14:38;;;;;;;6.07;4.15;;;11.80;99.90;;;;;;5095850;28;20075;-75
2022/11/10 11:17:24;;;;;;;5.88;4.10;;;11.90;99.90;;;;;;5079273;28;20055;-75
2022/11/10 11:19:53;;;;;;;4.43;3.97;;;11.90;99.90;;;;;;5077317;28;20046;-75
2022/11/10 11:22:50;;;;;;;5.05;4.40;;;11.90;99.90;;;;;;5077490;28;20024;-75
2022/11/10 11:25:29;;;;;;;6.30;3.92;;;12.00;99.90;;;;;;5098688;28;20043;-75
2022/11/10 11:28:13;;;;;;;5.07;3.95;;;12.00;99.90;;;;;;5098524;28;20031;-75
2022/11/10 11:30:57;;;;;;;4.18;3.78;;;12.00;99.90;;;;;;5116745;28;20028;-75
2022/11/10 11:33:23;;;;;;;4.95;3.72;;;12.00;99.90;;;;;;5097770;28;20028;-75
2022/11/10 11:36:01;;;;;;;5.20;3.67;;;12.00;99.90;;;;;;5115912;28;20066;-75
2022/11/10 11:39:18;;;;;;;6.82;5.00;;;12.00;99.90;;;;;;5115699;28;20073;-75
2022/11/10 11:42:07;;;;;;;4.43;3.65;;;12.00;99.90;;;;;;5081049;28;20387;-75
2022/11/10 11:44:40;;;;;;;5.00;3.53;;;12.00;99.90;;;;;;5098183;28;20031;-75
2022/11/10 11:47:24;;;;;;;7.97;4.20;;;12.00;99.90;;;;;;5115937;28;20031;-75
2022/11/10 11:49:50;;;;;;;6.95;4.75;;;12.10;99.90;;;;;;5115937;28;20024;-75
2022/11/10 11:52:53;;;;;;;7.07;4.75;;;12.00;99.90;;;;;;5097488;28;20114;-75
2022/11/10 11:55:40;;;;;;;5.68;4.13;;;12.00;99.90;;;;;;5115629;28;20019;-75
2022/11/10 11:58:23;;;;;;;5.35;4.70;;;12.00;99.90;;;;;;5097798;28;20028;-75
2022/11/10 12:01:03;;;;;;;5.05;4.38;;;12.00;99.90;;;;;;5097902;28;20028;-75
2022/11/10 12:03:39;;;;;;;5.13;4.50;;;12.00;99.90;;;;;;5115565;28;20028;-75
2022/11/10 12:06:29;;;;;;;6.50;5.10;;;12.00;99.90;;;;;;5115568;28;20032;-76
2022/11/10 12:08:57;;;;;;;7.13;4.72;;;12.00;99.90;;;;;;5115638;28;20102;-75
2022/11/10 12:11:50;;;;;;;5.85;4.65;;;12.00;99.90;;;;;;5096785;28;20027;-75
2022/11/10 12:14:30;;;;;;;6.00;5.10;;;12.00;99.90;;;;;;5097220;28;20483;-75
2022/11/10 12:17:21;;;;;;;9.25;5.18;;;12.00;99.90;;;;;;5097299;28;20146;-75
2022/11/10 12:20:10;;;;;;;7.32;5.32;;;12.00;99.90;;;;;;5116356;28;20053;-75
2022/11/10 12:22:48;;;;;;;6.35;5.10;;;12.00;99.90;;;;;;5116195;28;20102;-75
2022/11/10 12:25:26;;;;;;;9.45;5.20;;;12.00;99.90;;;;;;5097583;28;20459;-75
2022/11/10 12:28:13;;;;;;;6.57;5.28;;;12.00;99.90;;;;;;5115938;28;20023;-75
2022/11/10 12:30:40;;;;;;;9.35;5.63;;;12.00;99.90;;;;;;5096990;28;20137;-75
2022/11/10 12:33:42;;;;;;;7.60;5.40;;;12.00;99.90;;;;;;5097174;28;20398;-75
2022/11/10 12:36:13;;;;;;;7.53;5.45;;;12.10;99.90;;;;;;5097558;28;20220;-75
2022/11/10 12:38:47;;;;;;;7.70;5.45;;;12.10;99.90;;;;;;5115407;28;20042;-75
2022/11/10 12:41:20;;;;;;;7.57;5.70;;;12.10;99.90;;;;;;5115051;28;20020;-75
2022/11/10 12:44:13;;;;;;;8.73;5.38;;;12.20;99.90;;;;;;5114697;28;20027;-75
2022/11/10 12:46:42;;;;;;;6.95;5.13;;;12.20;99.90;;;;;;5114588;28;20032;-75
2022/11/10 12:49:33;;;;;;;8.60;5.57;;;12.30;99.90;;;;;;5096750;28;20023;-76
2022/11/10 12:52:22;;;;;;;7.60;5.57;;;12.40;99.90;;;;;;5096072;28;20067;-75
2022/11/10 12:54:48;;;;;;;6.40;5.72;;;12.40;99.90;;;;;;5114770;28;20030;-75
2022/11/10 12:57:19;;;;;;;8.35;4.78;;;12.30;99.90;;;;;;5114327;28;20024;-76
2022/11/10 13:00:07;;;;;;;8.95;5.70;;;12.30;99.90;;;;;;5096477;28;20019;-75
2022/11/10 13:02:41;;;;;;;10.83;6.60;;;12.20;99.90;;;;;;5097074;28;20455;-75
2022/11/10 13:05:30;;;;;;;9.68;5.53;;;12.10;99.90;;;;;;5114829;28;20051;-59
2022/11/10 13:08:34;;;;;;;8.93;6.13;;;12.20;99.90;;;;;;5114437;28;20034;-59
2022/11/10 13:11:02;;;;;;;8.48;5.40;;;12.30;99.90;;;;;;5031410;28;20049;-59
2022/11/10 13:13:28;;;;;;;7.97;5.72;;;12.30;99.90;;;;;;5032080;28;20112;-76
2022/11/10 13:15:56;;;;;;;7.88;5.53;;;12.30;99.90;;;;;;5015928;28;20446;-76